createdAt,value
2022-08-26T00:00:15.747Z,114.37
2022-08-26T00:02:45.056Z,112.23
2022-08-26T00:05:13.147Z,113.30
2022-08-26T00:07:41.134Z,112.47
2022-08-26T00:10:12.051Z,112.37
2022-08-26T00:12:40.591Z,118.30
2022-08-26T00:15:11.808Z,126.23
2022-08-26T00:17:40.306Z,124.37
2022-08-26T00:20:11.812Z,126.30
2022-08-26T00:22:39.764Z,123.60
2022-08-26T00:25:09.545Z,122.90
2022-08-26T00:27:37.970Z,116.50
2022-08-26T00:30:10.587Z,108.63
2022-08-26T00:32:38.640Z,107.63
2022-08-26T00:35:10.415Z,108.93
2022-08-26T00:37:38.620Z,110.17
2022-08-26T00:40:11.342Z,101.47
2022-08-26T00:42:39.575Z,102.80
2022-08-26T00:45:15.240Z,103.50
2022-08-26T00:47:47.396Z,104.13
2022-08-26T00:50:18.786Z,109.60
2022-08-26T00:52:48.280Z,104.30
2022-08-26T00:55:20.880Z,105.43
2022-08-26T00:57:52.555Z,99.70
2022-08-26T01:00:25.242Z,100.33
2022-08-26T01:02:53.564Z,91.27
2022-08-26T01:05:23.771Z,87.07
2022-08-26T01:07:51.976Z,95.00
2022-08-26T01:10:23.264Z,81.83
2022-08-26T01:12:54.828Z,89.93
2022-08-26T01:15:24.793Z,93.77
2022-08-26T01:17:52.782Z,98.07
2022-08-26T01:20:29.640Z,105.63
2022-08-26T01:23:01.616Z,124.27
2022-08-26T01:25:33.294Z,122.70
2022-08-26T01:28:05.695Z,126.03
2022-08-26T01:30:34.752Z,128.60
2022-08-26T01:33:04.856Z,128.37
2022-08-26T01:35:33.028Z,123.70
2022-08-26T01:38:02.449Z,124.37
2022-08-26T01:40:35.276Z,138.20
2022-08-26T01:43:04.282Z,147.40
2022-08-26T01:45:34.858Z,146.83
2022-08-26T01:48:04.989Z,155.53
2022-08-26T01:50:35.168Z,147.20
2022-08-26T01:53:07.067Z,159.77
2022-08-26T01:55:35.996Z,169.37
2022-08-26T01:58:06.362Z,180.03
2022-08-26T02:00:35.364Z,176.70
2022-08-26T02:03:21.509Z,175.27
2022-08-26T02:05:53.766Z,179.00
2022-08-26T02:08:27.360Z,170.93
2022-08-26T02:10:56.295Z,172.30
2022-08-26T02:13:26.663Z,172.10
2022-08-26T02:15:55.761Z,150.77
2022-08-26T02:18:24.436Z,151.27
2022-08-26T02:20:54.425Z,144.67
2022-08-26T02:23:24.384Z,145.60
2022-08-26T02:25:56.757Z,175.43
2022-08-26T02:28:26.930Z,186.97
2022-08-26T02:30:55.742Z,192.37
2022-08-26T02:33:23.880Z,183.73
2022-08-26T02:35:52.464Z,186.17
2022-08-26T02:38:20.497Z,117.93
2022-08-26T02:40:50.338Z,127.53
2022-08-26T02:43:19.208Z,126.10
2022-08-26T02:46:01.842Z,128.90
2022-08-26T02:48:31.077Z,131.77
2022-08-26T02:51:00.730Z,136.00
2022-08-26T02:53:31.705Z,126.23
2022-08-26T02:56:01.745Z,131.37
2022-08-26T02:58:31.145Z,117.60
2022-08-26T03:00:59.610Z,113.93
2022-08-26T03:03:30.125Z,125.37
2022-08-26T03:05:58.519Z,113.57
2022-08-26T03:08:26.530Z,121.23
2022-08-26T03:10:55.284Z,119.87
2022-08-26T03:13:25.439Z,116.80
2022-08-26T03:15:53.431Z,115.70
2022-08-26T03:18:21.461Z,123.27
2022-08-26T03:20:49.568Z,125.90
2022-08-26T03:23:17.529Z,127.20
2022-08-26T03:25:50.139Z,128.57
2022-08-26T03:28:19.396Z,134.40
2022-08-26T03:30:49.193Z,135.93
2022-08-26T03:33:17.629Z,141.50
2022-08-26T03:35:47.714Z,153.17
2022-08-26T03:38:19.466Z,146.17
2022-08-26T03:40:47.806Z,163.30
2022-08-26T03:43:17.188Z,152.70
2022-08-26T03:45:46.052Z,163.87
2022-08-26T03:48:16.262Z,154.17
2022-08-26T03:50:44.289Z,164.73
2022-08-26T03:53:13.066Z,165.87
2022-08-26T03:55:43.193Z,166.93
2022-08-26T03:58:12.020Z,163.90
2022-08-26T04:00:40.056Z,170.40
2022-08-26T04:03:10.084Z,177.47
2022-08-26T04:05:40.041Z,177.43
2022-08-26T04:08:08.516Z,174.33
2022-08-26T04:10:38.903Z,173.07
2022-08-26T04:13:07.241Z,174.93
2022-08-26T04:15:35.558Z,170.37
2022-08-26T04:18:04.278Z,191.93
2022-08-26T04:20:32.360Z,187.20
2022-08-26T04:23:04.372Z,182.97
2022-08-26T04:25:33.957Z,187.30
2022-08-26T04:28:04.204Z,199.50
2022-08-26T04:30:33.345Z,188.10
2022-08-26T04:33:04.539Z,204.30
2022-08-26T04:35:41.216Z,204.90
2022-08-26T04:38:13.172Z,199.20
2022-08-26T04:40:46.798Z,200.17
2022-08-26T04:43:15.359Z,200.57
2022-08-26T04:45:43.631Z,206.93
2022-08-26T04:48:11.661Z,209.57
2022-08-26T04:50:44.784Z,199.53
2022-08-26T04:53:18.845Z,209.17
2022-08-26T04:55:48.514Z,210.57
2022-08-26T04:58:17.573Z,203.40
2022-08-26T05:00:45.964Z,214.80
2022-08-26T05:03:14.492Z,198.40
2022-08-26T05:05:43.287Z,197.23
2022-08-26T05:08:12.748Z,184.27
2022-08-26T05:10:43.570Z,192.73
2022-08-26T05:13:15.136Z,197.07
2022-08-26T05:15:44.135Z,196.57
2022-08-26T05:18:13.785Z,202.87
2022-08-26T05:20:42.598Z,191.43
2022-08-26T05:23:10.660Z,195.20
2022-08-26T05:25:40.482Z,188.90
2022-08-26T05:28:10.108Z,197.33
2022-08-26T05:30:38.652Z,197.83
2022-08-26T05:33:07.767Z,195.33
2022-08-26T05:35:38.232Z,190.80
2022-08-26T05:38:12.842Z,195.37
2022-08-26T05:40:44.610Z,205.57
2022-08-26T05:43:14.525Z,201.27
2022-08-26T05:45:45.855Z,203.00
2022-08-26T05:48:15.254Z,208.60
2022-08-26T05:50:48.447Z,208.17
2022-08-26T05:53:18.449Z,210.90
2022-08-26T05:55:48.164Z,216.33
2022-08-26T05:58:20.206Z,215.00
2022-08-26T06:00:57.163Z,214.27
2022-08-26T06:03:25.499Z,213.57
2022-08-26T06:05:53.669Z,212.47
2022-08-26T06:08:21.889Z,215.33
2022-08-26T06:10:52.561Z,215.53
2022-08-26T06:13:25.492Z,220.40
2022-08-26T06:15:54.792Z,215.80
2022-08-26T06:18:27.351Z,207.10
2022-08-26T06:20:58.281Z,216.33
2022-08-26T06:23:45.887Z,211.43
2022-08-26T06:26:14.773Z,229.70
2022-08-26T06:28:45.486Z,227.70
2022-08-26T06:31:14.494Z,230.33
2022-08-26T06:33:42.873Z,218.53
2022-08-26T06:36:11.005Z,221.73
2022-08-26T06:38:40.018Z,218.77
2022-08-26T06:41:10.657Z,215.40
2022-08-26T06:43:39.468Z,226.77
2022-08-26T06:46:11.251Z,217.40
2022-08-26T06:48:40.712Z,214.03
2022-08-26T06:51:11.485Z,213.97
2022-08-26T06:53:41.150Z,223.10
2022-08-26T06:56:11.889Z,228.37
2022-08-26T06:58:41.736Z,209.60
2022-08-26T07:01:20.189Z,232.77
2022-08-26T07:03:49.724Z,229.73
2022-08-26T07:06:19.616Z,233.83
2022-08-26T07:08:47.707Z,217.97
2022-08-26T07:11:16.153Z,225.70
2022-08-26T07:13:45.042Z,234.87
2022-08-26T07:16:17.519Z,230.60
2022-08-26T07:18:48.470Z,221.90
2022-08-26T07:21:18.369Z,221.43
2022-08-26T07:23:47.071Z,231.70
2022-08-26T07:26:17.255Z,235.57
2022-08-26T07:28:46.158Z,227.70
2022-08-26T07:31:16.199Z,215.17
2022-08-26T07:33:46.260Z,228.33
2022-08-26T07:36:15.946Z,226.90
2022-08-26T07:38:45.455Z,225.60
2022-08-26T07:41:14.605Z,237.13
2022-08-26T07:43:43.599Z,237.20
2022-08-26T07:46:16.459Z,247.13
2022-08-26T07:48:46.464Z,222.83
2022-08-26T07:51:15.391Z,235.40
2022-08-26T07:53:43.741Z,233.40
2022-08-26T07:56:16.248Z,235.87
2022-08-26T07:58:46.673Z,240.97
2022-08-26T08:01:18.678Z,246.13
2022-08-26T08:03:51.565Z,249.77
2022-08-26T08:06:20.037Z,246.60
2022-08-26T08:08:48.421Z,244.40
2022-08-26T08:11:20.467Z,260.70
2022-08-26T08:13:49.806Z,259.23
2022-08-26T08:16:25.098Z,260.40
2022-08-26T08:18:56.092Z,265.13
2022-08-26T08:21:24.946Z,250.37
2022-08-26T08:23:53.822Z,253.43
2022-08-26T08:26:22.678Z,259.57
2022-08-26T08:28:51.188Z,254.23
2022-08-26T08:31:38.547Z,270.47
2022-08-26T08:34:10.992Z,273.33
2022-08-26T08:36:39.113Z,263.33
2022-08-26T08:39:07.486Z,254.77
2022-08-26T08:41:46.797Z,254.07
2022-08-26T08:44:19.143Z,253.23
2022-08-26T08:46:49.302Z,255.13
2022-08-26T08:49:19.720Z,264.93
2022-08-26T08:51:51.616Z,264.10
2022-08-26T08:54:21.955Z,266.43
2022-08-26T08:56:53.752Z,260.03
2022-08-26T08:59:24.145Z,256.70
2022-08-26T09:01:59.372Z,276.20
2022-08-26T09:04:45.172Z,269.13
2022-08-26T09:07:15.021Z,265.13
2022-08-26T09:09:51.369Z,271.73
2022-08-26T09:12:29.605Z,259.03
2022-08-26T09:15:02.368Z,273.23
2022-08-26T09:17:41.077Z,263.97
2022-08-26T09:20:18.148Z,268.03
2022-08-26T09:22:46.341Z,275.83
2022-08-26T09:25:15.991Z,279.83
2022-08-26T09:27:50.292Z,266.30
2022-08-26T09:30:25.644Z,264.60
2022-08-26T09:33:02.606Z,263.20
2022-08-26T09:35:36.677Z,267.17
2022-08-26T09:38:22.666Z,256.33
2022-08-26T09:41:00.402Z,267.83
2022-08-26T09:43:29.156Z,272.90
2022-08-26T09:46:12.353Z,275.47
2022-08-26T09:48:42.617Z,274.67
2022-08-26T09:51:29.625Z,275.40
2022-08-26T09:54:00.627Z,266.93
2022-08-26T09:56:30.319Z,280.13
2022-08-26T09:58:59.159Z,280.77
2022-08-26T10:01:32.918Z,280.80
2022-08-26T10:04:08.310Z,282.40
2022-08-26T10:06:42.122Z,288.27
2022-08-26T10:09:12.845Z,285.20
2022-08-26T10:11:44.916Z,288.40
2022-08-26T10:14:19.197Z,276.40
2022-08-26T10:16:50.699Z,271.83
2022-08-26T10:19:21.783Z,270.33
2022-08-26T10:21:54.603Z,273.50
2022-08-26T10:24:27.177Z,269.70
2022-08-26T10:27:01.120Z,272.67
2022-08-26T10:29:34.345Z,268.33
2022-08-26T10:32:06.314Z,264.27
2022-08-26T10:34:34.694Z,277.53
2022-08-26T10:37:13.895Z,276.17
2022-08-26T10:39:56.898Z,281.93
2022-08-26T10:42:30.083Z,271.60
2022-08-26T10:45:11.886Z,262.10
2022-08-26T10:47:47.419Z,277.63
2022-08-26T10:50:17.978Z,271.63
2022-08-26T10:52:56.367Z,268.50
2022-08-26T10:55:30.454Z,291.83
2022-08-26T10:58:09.781Z,273.90
2022-08-26T11:01:00.869Z,278.50
2022-08-26T11:03:35.082Z,296.87
2022-08-26T11:06:17.601Z,296.13
2022-08-26T11:08:51.117Z,287.77
2022-08-26T11:11:42.814Z,282.20
2022-08-26T11:14:12.085Z,291.63
2022-08-26T11:16:43.676Z,280.83
2022-08-26T11:19:13.916Z,275.00
2022-08-26T11:21:52.157Z,273.17
2022-08-26T11:24:44.566Z,269.20
2022-08-26T11:28:04.297Z,279.73
2022-08-26T11:30:58.098Z,277.57
2022-08-26T11:33:51.240Z,279.73
2022-08-26T11:36:59.635Z,281.33
2022-08-26T11:39:36.908Z,277.70
2022-08-26T11:42:20.293Z,272.17
2022-08-26T11:44:49.262Z,262.87
2022-08-26T11:47:18.702Z,260.23
2022-08-26T11:49:47.129Z,266.53
2022-08-26T11:52:20.849Z,266.70
2022-08-26T11:55:02.725Z,264.47
2022-08-26T11:57:34.282Z,282.23
2022-08-26T12:00:06.438Z,285.47
2022-08-26T12:02:36.419Z,276.53
2022-08-26T12:05:05.261Z,279.63
2022-08-26T12:07:33.393Z,280.70
2022-08-26T12:10:04.289Z,287.03
2022-08-26T12:12:38.494Z,277.17
2022-08-26T12:15:10.082Z,290.13
2022-08-26T12:17:39.537Z,286.57
2022-08-26T12:20:19.536Z,277.37
2022-08-26T12:22:48.416Z,281.27
2022-08-26T12:25:24.024Z,277.50
2022-08-26T12:27:54.162Z,285.53
2022-08-26T12:30:24.029Z,272.00
2022-08-26T12:32:57.953Z,267.53
2022-08-26T12:35:28.773Z,260.77
2022-08-26T12:37:58.087Z,255.70
2022-08-26T12:40:29.451Z,273.57
2022-08-26T12:43:00.432Z,272.30
2022-08-26T12:45:30.225Z,264.73
2022-08-26T12:48:00.342Z,263.97
2022-08-26T12:50:31.407Z,261.00
2022-08-26T12:53:02.867Z,261.77
2022-08-26T12:55:40.591Z,265.87
2022-08-26T12:58:19.728Z,270.90
2022-08-26T13:00:49.845Z,268.47
2022-08-26T13:03:32.957Z,265.87
2022-08-26T13:06:25.819Z,266.97
2022-08-26T13:08:55.858Z,260.10
2022-08-26T13:11:26.935Z,263.07
2022-08-26T13:14:00.211Z,264.60
2022-08-26T13:16:30.383Z,273.27
2022-08-26T13:19:00.865Z,303.77
2022-08-26T13:21:37.369Z,263.23
2022-08-26T13:24:08.858Z,286.20
2022-08-26T13:26:37.953Z,307.00
2022-08-26T13:29:10.366Z,324.57
2022-08-26T13:31:40.607Z,298.20
2022-08-26T13:34:09.889Z,313.60
2022-08-26T13:36:38.008Z,313.67
2022-08-26T13:39:08.211Z,321.43
2022-08-26T13:41:36.320Z,325.13
2022-08-26T13:44:04.931Z,316.70
2022-08-26T13:46:34.413Z,301.53
2022-08-26T13:49:03.001Z,310.80
2022-08-26T13:51:31.880Z,300.07
2022-08-26T13:54:00.309Z,317.57
2022-08-26T13:56:29.782Z,323.17
2022-08-26T13:58:58.620Z,310.67
2022-08-26T14:01:27.581Z,315.23
2022-08-26T14:03:57.237Z,318.60
2022-08-26T14:06:25.546Z,319.70
2022-08-26T14:08:53.617Z,307.93
2022-08-26T14:11:22.418Z,320.53
2022-08-26T14:13:50.652Z,317.17
2022-08-26T14:16:23.043Z,321.27
2022-08-26T14:18:51.372Z,307.40
2022-08-26T14:21:20.915Z,317.27
2022-08-26T14:23:49.149Z,307.83
2022-08-26T14:26:29.330Z,316.20
2022-08-26T14:28:58.907Z,322.40
2022-08-26T14:31:29.017Z,306.40
2022-08-26T14:33:58.335Z,319.80
2022-08-26T14:36:32.117Z,308.90
2022-08-26T14:39:02.459Z,326.70
2022-08-26T14:41:31.271Z,301.83
2022-08-26T14:44:01.710Z,330.37
2022-08-26T14:46:31.669Z,316.73
2022-08-26T14:49:01.564Z,317.63
2022-08-26T14:51:31.742Z,318.37
2022-08-26T14:54:14.933Z,317.97
2022-08-26T14:56:46.434Z,319.70
2022-08-26T14:59:15.437Z,324.50
2022-08-26T15:01:43.629Z,312.80
2022-08-26T15:04:11.736Z,321.50
2022-08-26T15:06:41.808Z,318.63
2022-08-26T15:09:10.037Z,325.60
2022-08-26T15:11:38.181Z,319.50
2022-08-26T15:14:07.311Z,301.67
2022-08-26T15:16:36.284Z,324.73
2022-08-26T15:19:05.981Z,309.43
2022-08-26T15:21:34.658Z,311.97
2022-08-26T15:24:05.254Z,310.17
2022-08-26T15:26:34.688Z,325.63
2022-08-26T15:29:04.989Z,307.83
2022-08-26T15:31:34.558Z,333.40
2022-08-26T15:34:05.273Z,317.17
2022-08-26T15:36:35.004Z,322.43
2022-08-26T15:39:06.761Z,329.70
2022-08-26T15:41:35.153Z,325.87
2022-08-26T15:44:03.746Z,321.63
2022-08-26T15:46:32.780Z,330.10
2022-08-26T15:49:01.014Z,330.53
2022-08-26T15:51:31.849Z,333.13
2022-08-26T15:54:00.625Z,334.00
2022-08-26T15:56:32.597Z,316.33
2022-08-26T15:59:02.504Z,351.37
2022-08-26T16:01:31.770Z,326.63
2022-08-26T16:04:00.593Z,334.37
2022-08-26T16:06:31.378Z,320.37
2022-08-26T16:08:59.709Z,321.93
2022-08-26T16:11:28.391Z,327.47
2022-08-26T16:13:58.391Z,334.07
2022-08-26T16:16:26.986Z,329.87
2022-08-26T16:18:55.460Z,331.33
2022-08-26T16:21:28.581Z,323.57
2022-08-26T16:23:57.657Z,339.00
2022-08-26T16:26:28.848Z,334.43
2022-08-26T16:28:58.323Z,326.43
2022-08-26T16:31:26.454Z,337.57
2022-08-26T16:33:54.556Z,335.03
2022-08-26T16:36:22.732Z,330.90
2022-08-26T16:38:54.684Z,331.20
2022-08-26T16:41:23.437Z,338.73
2022-08-26T16:43:54.240Z,349.87
2022-08-26T16:46:25.965Z,335.97
2022-08-26T16:49:04.733Z,322.40
2022-08-26T16:51:37.862Z,340.30
2022-08-26T16:54:07.654Z,338.70
2022-08-26T16:56:36.232Z,342.37
2022-08-26T16:59:04.909Z,341.93
2022-08-26T17:01:34.505Z,347.37
2022-08-26T17:04:02.839Z,341.67
2022-08-26T17:06:31.242Z,346.93
2022-08-26T17:08:59.512Z,361.20
2022-08-26T17:11:27.590Z,328.27
2022-08-26T17:13:56.124Z,352.57
2022-08-26T17:16:27.130Z,337.63
2022-08-26T17:18:59.710Z,357.50
2022-08-26T17:21:29.098Z,345.87
2022-08-26T17:23:59.461Z,351.50
2022-08-26T17:26:30.221Z,346.13
2022-08-26T17:29:01.285Z,349.13
2022-08-26T17:31:30.611Z,339.17
2022-08-26T17:34:01.071Z,333.73
2022-08-26T17:36:33.037Z,353.93
2022-08-26T17:39:11.213Z,338.90
2022-08-26T17:41:42.363Z,368.13
2022-08-26T17:44:12.989Z,349.80
2022-08-26T17:46:41.271Z,341.73
2022-08-26T17:49:11.102Z,336.77
2022-08-26T17:51:39.147Z,343.53
2022-08-26T17:54:07.497Z,328.20
2022-08-26T17:56:35.712Z,336.13
2022-08-26T17:59:04.180Z,325.70
2022-08-26T18:01:33.000Z,333.87
2022-08-26T18:04:01.334Z,330.97
2022-08-26T18:06:31.462Z,333.23
2022-08-26T18:09:00.211Z,336.37
2022-08-26T18:11:28.452Z,344.53
2022-08-26T18:13:56.630Z,335.90
2022-08-26T18:16:24.787Z,333.13
2022-08-26T18:18:53.498Z,330.60
2022-08-26T18:21:26.958Z,339.17
2022-08-26T18:23:57.007Z,333.67
2022-08-26T18:26:27.193Z,333.73
2022-08-26T18:28:57.648Z,341.77
2022-08-26T18:31:35.533Z,340.20
2022-08-26T18:34:06.669Z,345.13
2022-08-26T18:36:36.707Z,338.17
2022-08-26T18:39:08.531Z,350.03
2022-08-26T18:41:41.648Z,342.90
2022-08-26T18:44:13.682Z,347.87
2022-08-26T18:46:47.974Z,344.60
2022-08-26T18:49:17.806Z,345.60
2022-08-26T18:51:51.563Z,350.27
2022-08-26T18:54:24.147Z,347.50
2022-08-26T18:56:54.608Z,341.77
2022-08-26T18:59:29.694Z,350.63
2022-08-26T19:01:59.444Z,357.30
2022-08-26T19:04:28.206Z,355.73
2022-08-26T19:06:59.504Z,352.17
2022-08-26T19:09:31.201Z,338.10
2022-08-26T19:12:00.776Z,344.20
2022-08-26T19:14:30.159Z,353.07
2022-08-26T19:16:58.677Z,346.67
2022-08-26T19:19:26.891Z,357.83
2022-08-26T19:21:55.276Z,347.27
2022-08-26T19:24:28.392Z,348.83
2022-08-26T19:27:02.017Z,359.03
2022-08-26T19:29:33.857Z,364.57
2022-08-26T19:32:02.916Z,355.37
2022-08-26T19:34:31.393Z,352.87
2022-08-26T19:36:59.821Z,362.57
2022-08-26T19:39:28.545Z,357.33
2022-08-26T19:41:59.046Z,360.83
2022-08-26T19:44:44.617Z,354.97
2022-08-26T19:47:14.009Z,370.83
2022-08-26T19:49:42.121Z,369.63
2022-08-26T19:52:11.078Z,369.73
2022-08-26T19:54:43.064Z,354.30
2022-08-26T19:57:12.877Z,362.20
2022-08-26T19:59:41.387Z,378.13
2022-08-26T20:02:16.600Z,363.70
2022-08-26T20:04:45.800Z,363.07
2022-08-26T20:07:18.945Z,370.20
2022-08-26T20:09:50.995Z,364.43
2022-08-26T20:12:33.300Z,366.37
2022-08-26T20:15:04.812Z,363.50
2022-08-26T20:17:34.271Z,375.00
2022-08-26T20:20:32.612Z,364.90
2022-08-26T20:23:05.727Z,371.17
2022-08-26T20:25:36.474Z,371.97
2022-08-26T20:28:09.930Z,374.27
2022-08-26T20:30:38.454Z,371.93
2022-08-26T20:33:06.968Z,376.77
2022-08-26T20:35:37.694Z,372.97
2022-08-26T20:38:06.022Z,369.70
2022-08-26T20:40:35.578Z,374.33
2022-08-26T20:43:07.793Z,371.17
2022-08-26T20:45:40.748Z,375.30
2022-08-26T20:48:09.284Z,354.13
2022-08-26T20:50:40.325Z,377.37
2022-08-26T20:53:09.425Z,364.63
2022-08-26T20:55:53.846Z,368.27
2022-08-26T20:58:28.289Z,366.07
2022-08-26T21:00:58.780Z,371.63
2022-08-26T21:03:28.080Z,375.47
2022-08-26T21:05:57.689Z,371.20
2022-08-26T21:08:26.122Z,358.63
2022-08-26T21:10:54.885Z,378.10
2022-08-26T21:13:27.117Z,377.77
2022-08-26T21:15:58.380Z,377.60
2022-08-26T21:18:26.577Z,369.27
2022-08-26T21:20:54.898Z,362.63
2022-08-26T21:23:29.204Z,373.50
2022-08-26T21:25:57.622Z,375.30
2022-08-26T21:28:26.042Z,372.73
2022-08-26T21:30:54.213Z,384.03
2022-08-26T21:33:23.704Z,372.60
2022-08-26T21:35:54.430Z,374.90
2022-08-26T21:38:22.919Z,369.23
2022-08-26T21:40:58.533Z,365.00
2022-08-26T21:43:34.708Z,364.13
2022-08-26T21:46:11.299Z,372.50
2022-08-26T21:48:41.595Z,381.93
2022-08-26T21:51:10.866Z,365.07
2022-08-26T21:53:38.981Z,360.50
2022-08-26T21:56:08.284Z,372.63
2022-08-26T21:58:36.583Z,370.30
2022-08-26T22:01:05.729Z,356.60
2022-08-26T22:03:46.822Z,374.03
2022-08-26T22:06:18.766Z,367.23
2022-08-26T22:08:46.988Z,372.80
2022-08-26T22:11:15.873Z,366.00
2022-08-26T22:13:44.563Z,363.20
2022-08-26T22:16:13.301Z,384.40
2022-08-26T22:18:43.176Z,378.23
2022-08-26T22:21:15.351Z,375.73
2022-08-26T22:23:45.554Z,381.67
2022-08-26T22:26:15.875Z,380.20
2022-08-26T22:28:58.526Z,377.17
2022-08-26T22:31:37.025Z,381.13
2022-08-26T22:34:07.433Z,388.37
2022-08-26T22:36:36.169Z,385.77
2022-08-26T22:39:13.154Z,377.70
2022-08-26T22:41:42.034Z,380.50
2022-08-26T22:44:11.568Z,367.27
2022-08-26T22:46:39.803Z,388.13
2022-08-26T22:49:09.571Z,392.83
2022-08-26T22:51:37.890Z,390.57
2022-08-26T22:54:06.677Z,386.33
2022-08-26T22:56:36.684Z,385.20
2022-08-26T22:59:05.194Z,397.80
2022-08-26T23:01:36.199Z,403.17
2022-08-26T23:04:05.621Z,397.90
2022-08-26T23:06:36.082Z,397.77
2022-08-26T23:09:04.477Z,394.33
2022-08-26T23:11:32.620Z,384.37
2022-08-26T23:14:05.046Z,396.37
2022-08-26T23:16:39.255Z,401.20
2022-08-26T23:19:08.133Z,397.87
2022-08-26T23:21:37.443Z,390.53
2022-08-26T23:24:06.035Z,389.73
2022-08-26T23:26:34.346Z,387.47
2022-08-26T23:29:04.865Z,384.30
2022-08-26T23:31:33.300Z,388.60
2022-08-26T23:34:18.731Z,381.57
2022-08-26T23:36:47.405Z,396.33
2022-08-26T23:39:15.683Z,401.20
2022-08-26T23:41:44.028Z,376.70
2022-08-26T23:44:13.542Z,386.50
2022-08-26T23:46:41.608Z,378.77
2022-08-26T23:49:09.765Z,375.07
2022-08-26T23:51:56.838Z,384.50
2022-08-26T23:54:24.836Z,387.83
2022-08-26T23:56:52.846Z,374.60
2022-08-26T23:59:22.348Z,382.40
